NH37 weather

Southern Nh Medical Center Heliport
Nashua, New Hampshire, United States

Public forecast

Using degrees Fahrenheit for public forecast. Weather courtesy of forecast.io.

METAR (pilot weather report)

Closest report is Boire Field, 2.8 nm (5.2 km) NW. Retrieved 2019/07/17 23:56 UTC (33 minutes ago):

KASH 172356Z 00000KT 7SM FEW018 BKN070 OVC110 23/23 A2991 RMK AO2 RAE2257 SLP131 60027 T02330233 10317 20233 53017

TAF (pilot weather forecast)

Forecast is more than 12 hours old.

Closest forecast is Manchester-Boston Regional Airport, 10.7 nm (19.8 km) N. Retrieved 2019/07/17 00:21 UTC (1 day ago):

TAF KMHT 172320Z 1800/1824 VRB04KT P6SM VCSH SCT025 OVC080 FM181200 04008KT P6SM OVC035 FM181500 07007KT P6SM -RA OVC025